Time;durP1;ratioP1;P1;durP2;ratioP2;P2;SDS_P1;SDS_P2;PMS_P1;PMS_P2;Temp;Humidity;BMP_temperature;BMP_pressure;BME280_temperature;BME280_humidity;BME280_pressure;Samples;Min_cycle;Max_cycle;Signal;HPM_P1;HPM_P2
2023/02/16 00:00:16;;;;;;;;;28.50;26.00;21.90;30.90;;;;;;110064;1254;46071;-65
2023/02/16 00:03:03;;;;;;;;;32.00;28.50;21.80;31.10;;;;;;110199;1254;55235;-64
2023/02/16 00:05:32;;;;;;;;;30.00;26.00;21.80;31.10;;;;;;110680;1254;53509;-65
2023/02/16 00:08:00;;;;;;;;;27.33;24.33;21.80;31.10;;;;;;110033;1253;49481;-65
2023/02/16 00:10:32;;;;;;;;;32.00;29.00;21.70;30.90;;;;;;110002;1257;49466;-64
2023/02/16 00:15:45;;;;;;;;;32.00;28.00;21.70;31.00;;;;;;110238;1256;56694;-64
2023/02/16 00:18:20;;;;;;;;;31.00;28.00;21.60;30.90;;;;;;109983;1256;53648;-65
2023/02/16 00:20:48;;;;;;;;;29.00;25.00;21.60;31.00;;;;;;110109;1253;49751;-63
2023/02/16 00:23:15;;;;;;;;;34.00;27.50;21.50;30.90;;;;;;110121;1256;49067;-64
2023/02/16 00:25:42;;;;;;;;;33.00;30.00;21.50;31.00;;;;;;109861;1256;46075;-64
2023/02/16 00:28:16;;;;;;;;;25.67;24.00;21.50;31.00;;;;;;110140;1252;55650;-64
2023/02/16 00:30:44;;;;;;;;;27.00;25.00;21.40;31.00;;;;;;110070;1252;54489;-64
2023/02/16 00:33:15;;;;;;;;;29.67;27.00;21.40;31.00;;;;;;109955;1255;51069;-64
2023/02/16 00:35:43;;;;;;;;;34.00;30.67;21.40;31.00;;;;;;109860;1257;50282;-63
2023/02/16 00:38:11;;;;;;;;;34.00;30.00;21.40;31.10;;;;;;110004;1257;46087;-64
2023/02/16 00:40:39;;;;;;;;;31.00;28.00;21.30;31.00;;;;;;109999;1256;55370;-63
2023/02/16 00:43:06;;;;;;;;;32.00;28.00;21.30;31.30;;;;;;109921;1252;54004;-64
2023/02/16 00:45:36;;;;;;;;;32.00;29.00;21.20;31.00;;;;;;110348;1252;50294;-64
2023/02/16 00:48:03;;;;;;;;;26.00;25.00;21.20;31.10;;;;;;110031;1252;49262;-64
2023/02/16 00:50:32;;;;;;;;;29.00;27.00;21.20;31.10;;;;;;109995;1256;45396;-64
2023/02/16 00:53:01;;;;;;;;;34.50;29.00;21.20;31.30;;;;;;110004;1256;55584;-65
2023/02/16 00:55:32;;;;;;;;;32.50;29.00;21.10;31.00;;;;;;110521;1256;53819;-63
2023/02/16 00:58:23;;;;;;;;;32.50;28.00;21.10;31.30;;;;;;110073;1257;50247;-64
2023/02/16 01:00:53;;;;;;;;;31.00;27.00;21.10;31.00;;;;;;110068;1252;49357;-64
2023/02/16 01:03:26;;;;;;;;;30.00;27.00;21.10;31.00;;;;;;109866;1255;45717;-63
2023/02/16 01:11:06;;;;;;;;;36.00;31.00;21.00;31.50;;;;;;109947;1256;55345;-63
2023/02/16 01:11:27;;;;;;;;;31.00;28.00;21.00;31.20;;;;;;110053;1256;49752;-64
2023/02/16 01:13:55;;;;;;;;;32.00;29.00;21.00;31.20;;;;;;110124;1254;49610;-64
2023/02/16 01:16:44;;;;;;;;;31.67;29.67;20.90;31.00;;;;;;110114;1251;45520;-64
2023/02/16 01:19:12;;;;;;;;;32.50;28.00;20.90;31.10;;;;;;110395;1254;55232;-64
2023/02/16 01:21:39;;;;;;;;;28.00;26.67;20.80;31.00;;;;;;110217;1254;54921;-63
2023/02/16 01:24:06;;;;;;;;;32.00;28.00;20.80;31.00;;;;;;110073;1254;50739;-64
2023/02/16 01:26:38;;;;;;;;;32.00;30.67;20.80;31.00;;;;;;110109;1254;49314;-63
2023/02/16 01:29:06;;;;;;;;;31.50;28.00;20.80;31.10;;;;;;109988;1255;45588;-65
2023/02/16 01:31:33;;;;;;;;;33.50;30.75;20.70;30.60;;;;;;110140;1251;55633;-63
2023/02/16 01:34:00;;;;;;;;;28.00;26.00;20.70;31.10;;;;;;110151;1254;53831;-63
2023/02/16 01:36:30;;;;;;;;;31.00;29.00;20.70;31.20;;;;;;110330;1250;50211;-63
2023/02/16 01:38:57;;;;;;;;;29.00;26.00;20.60;31.10;;;;;;110243;1250;50657;-64
2023/02/16 01:42:09;;;;;;;;;27.00;24.00;20.60;31.10;;;;;;110118;1254;45984;-63
2023/02/16 01:44:36;;;;;;;;;35.00;30.00;20.60;31.00;;;;;;110516;1254;56404;-63
2023/02/16 01:47:27;;;;;;;;;36.50;31.00;20.50;31.10;;;;;;110435;1254;54157;-66
2023/02/16 01:49:54;;;;;;;;;35.00;29.00;20.50;31.00;;;;;;110455;1251;49263;-62
2023/02/16 01:52:43;;;;;;;;;32.00;28.00;20.50;31.20;;;;;;110139;1255;49478;-64
2023/02/16 01:55:19;;;;;;;;;31.00;29.00;20.50;31.10;;;;;;109947;1257;46393;-63
2023/02/16 01:57:49;;;;;;;;;40.00;31.00;20.50;31.20;;;;;;110279;1256;56776;-64
2023/02/16 02:00:47;;;;;;;;;27.00;26.00;20.50;31.20;;;;;;110409;1254;53913;-62
2023/02/16 02:06:33;;;;;;;;;33.00;26.50;20.30;31.30;;;;;;110336;1251;48891;-63
2023/02/16 02:09:17;;;;;;;;;36.50;31.50;20.30;31.30;;;;;;110305;1254;46279;-63
2023/02/16 02:12:09;;;;;;;;;35.50;32.00;20.30;31.10;;;;;;110302;1251;55827;-63
2023/02/16 02:14:39;;;;;;;;;38.00;27.00;20.20;31.10;;;;;;109931;1250;53487;-63
2023/02/16 02:17:11;;;;;;;;;36.00;32.33;20.20;31.10;;;;;;110052;1255;49532;-64
2023/02/16 02:19:55;;;;;;;;;38.67;31.00;20.20;31.70;;;;;;110143;1250;50337;-64
2023/02/16 02:26:05;;;;;;;;;36.50;30.50;20.20;31.20;;;;;;109997;1254;55232;-63
2023/02/16 02:28:59;;;;;;;;;32.00;28.00;20.10;31.40;;;;;;110253;1254;53224;-64
2023/02/16 02:31:51;;;;;;;;;33.00;31.00;20.10;31.40;;;;;;109998;1254;50199;-64
2023/02/16 02:34:31;;;;;;;;;37.00;30.50;20.00;31.10;;;;;;110622;1254;49612;-64
2023/02/16 02:37:21;;;;;;;;;39.00;31.33;20.10;31.20;;;;;;110172;1250;45269;-65
2023/02/16 02:40:05;;;;;;;;;34.00;31.00;20.00;31.30;;;;;;110170;1251;56595;-63
2023/02/16 02:42:43;;;;;;;;;35.00;31.00;20.00;31.20;;;;;;109979;1254;53005;-64
2023/02/16 02:45:18;;;;;;;;;35.00;31.00;19.90;31.30;;;;;;109913;1250;49542;-63
2023/02/16 02:47:46;;;;;;;;;42.00;33.00;19.90;31.40;;;;;;110103;1253;49200;-64
2023/02/16 02:50:31;;;;;;;;;38.33;31.00;19.90;31.40;;;;;;110254;1250;45570;-63
2023/02/16 02:53:01;;;;;;;;;29.00;27.50;19.90;31.40;;;;;;110189;1254;55645;-64
2023/02/16 03:01:00;;;;;;;;;35.00;32.00;19.90;31.20;;;;;;110407;1251;50497;-63
2023/02/16 03:03:37;;;;;;;;;40.00;32.00;19.80;31.10;;;;;;110431;1256;46787;-64
2023/02/16 03:06:11;;;;;;;;;38.00;32.50;19.80;31.20;;;;;;110346;1254;56090;-63
2023/02/16 03:08:40;;;;;;;;;37.50;33.00;19.70;31.10;;;;;;110411;1251;54175;-63
2023/02/16 03:14:04;;;;;;;;;38.67;33.33;19.70;31.10;;;;;;110565;1251;49316;-64
2023/02/16 03:16:37;;;;;;;;;40.50;33.00;19.70;31.20;;;;;;110098;1254;45410;-63
2023/02/16 03:30:14;;;;;;;;;33.00;31.00;19.60;31.10;;;;;;110283;1254;45518;-64
2023/02/16 03:32:42;;;;;;;;;36.00;30.00;19.60;31.10;;;;;;110343;1254;56723;-64
2023/02/16 03:35:11;;;;;;;;;33.00;31.00;19.60;31.10;;;;;;110311;1255;54003;-64
2023/02/16 03:37:42;;;;;;;;;33.00;29.00;19.60;31.20;;;;;;110475;1254;49118;-63
2023/02/16 03:40:27;;;;;;;;;41.00;36.00;19.70;31.10;;;;;;110251;1256;48903;-62
2023/02/16 03:42:56;;;;;;;;;38.33;32.00;19.70;31.00;;;;;;110137;1256;45464;-62
2023/02/16 03:45:24;;;;;;;;;38.50;31.50;19.80;31.00;;;;;;109912;1254;55536;-64
2023/02/16 03:47:52;;;;;;;;;39.00;34.00;19.90;31.10;;;;;;110259;1254;54984;-63
2023/02/16 03:50:19;;;;;;;;;37.33;32.33;20.00;31.20;;;;;;109893;1254;50130;-63
2023/02/16 03:52:46;;;;;;;;;34.50;30.50;20.10;31.20;;;;;;110337;1250;49370;-63
2023/02/16 03:55:14;;;;;;;;;44.00;34.00;20.20;31.30;;;;;;109965;1256;45933;-63
2023/02/16 03:57:41;;;;;;;;;32.00;27.50;20.20;31.20;;;;;;110025;1254;55396;-63
2023/02/16 04:00:08;;;;;;;;;40.50;33.50;20.40;30.80;;;;;;110206;1250;54200;-63
2023/02/16 04:02:36;;;;;;;;;41.50;33.50;20.50;31.40;;;;;;110122;1251;50530;-63
2023/02/16 04:05:03;;;;;;;;;30.50;29.00;20.60;31.30;;;;;;110088;1250;49109;-64
2023/02/16 04:07:30;;;;;;;;;41.00;33.00;20.70;31.40;;;;;;110427;1254;45682;-64
2023/02/16 04:09:57;;;;;;;;;45.00;33.00;20.80;31.60;;;;;;110518;1250;55552;-65
2023/02/16 04:12:36;;;;;;;;;39.25;32.75;21.00;31.50;;;;;;110242;1254;53106;-61
2023/02/16 04:15:09;;;;;;;;;34.00;31.00;21.10;31.00;;;;;;110020;1254;49573;-63
2023/02/16 04:17:36;;;;;;;;;36.00;32.00;21.30;31.70;;;;;;110041;1255;50305;-62
2023/02/16 04:20:05;;;;;;;;;33.50;28.50;21.40;31.40;;;;;;109959;1255;45886;-63
2023/02/16 04:22:32;;;;;;;;;37.00;31.00;21.60;31.50;;;;;;110032;1254;55297;-61
2023/02/16 04:24:59;;;;;;;;;37.50;30.50;21.70;31.40;;;;;;110330;1250;54068;-60
2023/02/16 04:27:26;;;;;;;;;34.00;30.00;21.80;31.40;;;;;;110292;1250;50334;-61
2023/02/16 04:29:53;;;;;;;;;34.00;31.00;21.90;31.30;;;;;;110333;1250;49900;-61
2023/02/16 04:32:21;;;;;;;;;31.67;30.00;22.10;31.40;;;;;;110118;1254;45435;-61
2023/02/16 04:34:48;;;;;;;;;37.00;31.00;22.20;31.40;;;;;;110117;1254;55521;-60
2023/02/16 04:37:15;;;;;;;;;32.00;29.00;22.30;31.70;;;;;;110372;1250;53983;-61
2023/02/16 04:39:42;;;;;;;;;35.00;30.00;22.50;31.50;;;;;;110350;1250;49741;-61
2023/02/16 04:42:09;;;;;;;;;31.00;29.00;22.60;31.30;;;;;;110352;1254;49283;-60
2023/02/16 04:44:36;;;;;;;;;37.50;32.00;22.80;31.60;;;;;;110164;1254;45186;-63
2023/02/16 04:47:03;;;;;;;;;34.00;27.50;22.90;31.50;;;;;;110253;1250;55063;-62
2023/02/16 04:49:30;;;;;;;;;40.00;32.00;23.00;31.70;;;;;;110325;1250;53435;-62
2023/02/16 04:51:57;;;;;;;;;35.00;30.67;23.10;31.30;;;;;;110361;1250;50199;-59
2023/02/16 04:54:24;;;;;;;;;38.00;31.00;23.30;31.70;;;;;;110214;1254;49807;-61
2023/02/16 04:56:50;;;;;;;;;34.00;29.00;23.40;31.50;;;;;;110211;1254;46183;-70
2023/02/16 04:59:18;;;;;;;;;44.00;35.67;23.50;31.50;;;;;;110377;1250;55385;-64
2023/02/16 05:01:45;;;;;;;;;36.00;32.00;23.60;33.70;;;;;;110256;1254;54217;-67
2023/02/16 05:04:11;;;;;;;;;44.00;36.00;23.80;34.20;;;;;;110694;1250;49506;-67
2023/02/16 05:06:38;;;;;;;;;45.00;37.00;23.90;34.50;;;;;;110488;1250;49026;-69
2023/02/16 05:09:06;;;;;;;;;49.00;37.67;24.00;34.30;;;;;;110454;1250;45124;-67
2023/02/16 05:14:41;;;;;;;;;44.50;34.50;24.20;34.60;;;;;;110647;1250;54094;-74
2023/02/16 05:17:20;;;;;;;;;47.00;38.00;24.30;34.90;;;;;;110229;1250;49763;-71
2023/02/16 05:19:53;;;;;;;;;46.33;37.67;24.40;36.00;;;;;;110353;1254;49843;-76
2023/02/16 05:22:20;;;;;;;;;49.50;38.50;24.50;35.60;;;;;;110209;1250;45197;-66
2023/02/16 05:24:47;;;;;;;;;43.33;36.00;24.70;35.40;;;;;;110272;1250;55592;-66
2023/02/16 05:27:18;;;;;;;;;40.00;34.00;24.80;35.10;;;;;;110052;1254;53997;-67
2023/02/16 05:29:45;;;;;;;;;39.67;35.33;24.90;35.20;;;;;;110200;1250;50953;-69
2023/02/16 05:32:12;;;;;;;;;37.50;33.50;25.00;34.70;;;;;;110039;1250;50218;-67
2023/02/16 05:34:39;;;;;;;;;40.00;32.00;25.10;35.00;;;;;;110143;1254;45972;-68
2023/02/16 05:37:06;;;;;;;;;46.00;36.00;25.20;34.20;;;;;;110341;1250;55390;-72
2023/02/16 05:39:33;;;;;;;;;63.00;45.00;25.30;35.20;;;;;;110414;1250;53729;-69
2023/02/16 05:42:00;;;;;;;;;74.00;51.00;25.40;36.80;;;;;;110393;1249;49942;-73
2023/02/16 05:44:27;;;;;;;;;61.50;46.00;25.40;38.40;;;;;;110614;1254;50468;-78
2023/02/16 05:46:54;;;;;;;;;66.50;46.00;25.50;37.50;;;;;;110419;1254;45233;-73
2023/02/16 05:49:21;;;;;;;;;68.67;48.00;25.50;36.70;;;;;;110490;1254;55108;-75
2023/02/16 05:51:48;;;;;;;;;74.00;50.00;25.60;38.40;;;;;;110324;1254;53702;-77
2023/02/16 05:54:18;;;;;;;;;63.50;46.00;25.60;38.90;;;;;;110438;1256;49733;-73
2023/02/16 05:56:50;;;;;;;;;62.00;45.00;25.60;39.20;;;;;;110360;1250;50387;-73
2023/02/16 05:59:18;;;;;;;;;66.00;48.00;25.70;38.60;;;;;;110396;1249;45457;-72
2023/02/16 06:01:45;;;;;;;;;56.33;42.33;25.70;38.50;;;;;;110464;1250;55706;-68
2023/02/16 06:04:16;;;;;;;;;57.50;43.50;25.80;38.30;;;;;;110644;1250;53643;-67
2023/02/16 06:06:43;;;;;;;;;54.00;43.00;25.90;38.50;;;;;;110471;1250;50440;-68
2023/02/16 06:09:10;;;;;;;;;55.50;44.50;26.00;37.90;;;;;;110472;1254;48953;-66
2023/02/16 06:11:37;;;;;;;;;56.25;45.00;26.00;37.50;;;;;;110346;1254;46071;-67
2023/02/16 06:14:15;;;;;;;;;54.00;41.00;26.10;36.90;;;;;;110506;1254;56168;-78
2023/02/16 06:16:46;;;;;;;;;56.67;42.33;26.10;36.40;;;;;;110151;1250;53752;-80
2023/02/16 06:19:14;;;;;;;;;52.00;40.00;26.10;36.10;;;;;;110150;1254;49959;-75
2023/02/16 06:21:41;;;;;;;;;53.00;40.00;26.10;35.60;;;;;;110244;1255;49533;-80
2023/02/16 06:24:10;;;;;;;;;49.00;40.00;26.20;35.30;;;;;;110601;1251;46062;-75
2023/02/16 06:26:37;;;;;;;;;50.50;41.50;26.20;35.20;;;;;;110400;1250;57178;-67
2023/02/16 06:29:04;;;;;;;;;53.00;43.00;26.20;34.90;;;;;;110240;1250;54173;-80
2023/02/16 06:31:31;;;;;;;;;53.50;43.00;26.20;34.70;;;;;;110385;1250;49192;-81
2023/02/16 06:34:00;;;;;;;;;56.50;44.00;26.10;34.40;;;;;;109987;1250;686913;-78
2023/02/16 06:36:26;;;;;;;;;49.00;38.50;26.10;34.30;;;;;;110323;1250;46629;-76
2023/02/16 06:38:53;;;;;;;;;50.00;40.00;26.10;34.20;;;;;;110211;1250;55614;-72
2023/02/16 06:44:12;;;;;;;;;60.00;44.00;26.10;34.30;;;;;;110553;1250;49545;-75
2023/02/16 06:46:40;;;;;;;;;47.50;38.00;26.10;34.10;;;;;;110144;1253;49415;-77
2023/02/16 06:49:10;;;;;;;;;50.00;39.00;26.10;34.10;;;;;;110251;1250;45626;-74
2023/02/16 06:51:37;;;;;;;;;51.50;39.00;26.00;34.00;;;;;;110222;1251;55278;-78
2023/02/16 06:54:04;;;;;;;;;47.00;37.33;26.00;34.10;;;;;;110514;1250;54095;-70
2023/02/16 06:56:31;;;;;;;;;48.00;39.00;26.00;34.00;;;;;;110177;1250;49448;-71
2023/02/16 06:58:58;;;;;;;;;49.00;37.67;25.90;33.70;;;;;;110310;1250;49901;-66
2023/02/16 07:01:25;;;;;;;;;51.00;41.00;25.90;33.60;;;;;;110223;1253;46707;-67
2023/02/16 07:03:53;;;;;;;;;54.00;42.00;25.90;33.60;;;;;;110471;1251;55736;-72
2023/02/16 07:06:23;;;;;;;;;52.00;41.00;25.80;33.50;;;;;;110274;1250;53444;-69
2023/02/16 07:08:51;;;;;;;;;46.00;37.00;25.80;33.40;;;;;;110264;1254;49500;-70
2023/02/16 07:11:18;;;;;;;;;49.00;39.00;25.80;33.40;;;;;;110340;1250;50664;-69
2023/02/16 07:13:46;;;;;;;;;46.00;37.33;25.80;33.20;;;;;;110513;1254;46809;-72
2023/02/16 07:16:14;;;;;;;;;48.50;38.50;25.70;33.20;;;;;;110359;1250;55789;-70
2023/02/16 07:18:41;;;;;;;;;47.50;38.50;25.60;32.90;;;;;;110240;1254;53844;-76
2023/02/16 07:21:08;;;;;;;;;46.00;37.00;25.60;32.50;;;;;;110309;1250;50499;-67
2023/02/16 07:23:35;;;;;;;;;50.00;38.33;25.50;32.90;;;;;;110497;1250;50431;-76
2023/02/16 07:26:02;;;;;;;;;47.00;38.00;25.50;33.60;;;;;;110254;1252;46006;-74
2023/02/16 07:28:29;;;;;;;;;50.00;40.75;25.40;33.00;;;;;;110297;1254;56074;-70
2023/02/16 07:30:56;;;;;;;;;48.00;38.50;25.40;33.00;;;;;;110224;1254;53601;-73
2023/02/16 07:33:23;;;;;;;;;47.00;38.00;25.40;33.00;;;;;;110466;1250;49997;-73
2023/02/16 07:35:50;;;;;;;;;48.00;40.00;25.30;33.00;;;;;;110340;1250;50377;-75
2023/02/16 07:38:18;;;;;;;;;50.50;41.50;25.30;32.90;;;;;;110230;1250;45974;-77
2023/02/16 07:40:44;;;;;;;;;48.00;37.00;25.20;32.90;;;;;;110349;1250;55073;-73
2023/02/16 07:43:11;;;;;;;;;47.00;39.00;25.20;32.70;;;;;;110476;1254;53730;-63
2023/02/16 07:45:38;;;;;;;;;48.00;39.00;25.10;32.80;;;;;;110574;1250;50405;-66
2023/02/16 07:48:05;;;;;;;;;44.00;36.00;25.00;32.70;;;;;;110338;1254;49211;-74
2023/02/16 07:50:32;;;;;;;;;42.67;36.33;24.90;32.60;;;;;;110251;1252;46655;-72
2023/02/16 07:53:02;;;;;;;;;45.33;35.67;24.90;32.70;;;;;;110241;1254;56923;-71
2023/02/16 07:55:29;;;;;;;;;49.00;39.00;24.80;32.60;;;;;;110517;1250;53716;-71
2023/02/16 07:57:56;;;;;;;;;49.00;39.00;24.80;32.50;;;;;;110383;1254;49534;-73
2023/02/16 08:00:24;;;;;;;;;47.67;39.33;24.70;32.70;;;;;;110236;1254;48768;-73
2023/02/16 08:02:51;;;;;;;;;52.33;41.67;24.60;32.60;;;;;;110282;1254;45278;-65
2023/02/16 08:05:18;;;;;;;;;50.67;40.67;24.60;32.60;;;;;;110468;1250;56597;-67
2023/02/16 08:07:46;;;;;;;;;51.50;37.50;24.60;32.60;;;;;;110391;1254;53331;-72
2023/02/16 08:10:14;;;;;;;;;48.00;38.00;24.60;32.50;;;;;;110339;1250;49667;-70
2023/02/16 08:12:42;;;;;;;;;52.50;42.50;24.50;32.50;;;;;;110322;1250;49300;-74
2023/02/16 08:15:10;;;;;;;;;50.25;41.00;24.50;32.40;;;;;;110654;1250;45413;-76
2023/02/16 08:17:37;;;;;;;;;47.00;38.00;24.40;32.40;;;;;;110454;1252;55868;-72
2023/02/16 08:20:06;;;;;;;;;47.00;38.00;24.40;32.30;;;;;;110374;1254;53726;-72
2023/02/16 08:22:34;;;;;;;;;50.00;40.00;24.40;32.50;;;;;;110393;1250;49961;-69
2023/02/16 08:25:02;;;;;;;;;45.00;37.00;24.30;32.60;;;;;;110570;1254;49075;-70
2023/02/16 08:27:29;;;;;;;;;48.00;39.00;24.30;32.30;;;;;;110329;1250;46823;-70
2023/02/16 08:29:56;;;;;;;;;46.00;38.00;24.20;32.20;;;;;;110374;1250;55915;-68
2023/02/16 08:32:23;;;;;;;;;48.50;37.50;24.20;32.90;;;;;;110402;1250;54296;-70
2023/02/16 08:34:51;;;;;;;;;48.33;38.00;24.20;32.60;;;;;;110684;1254;49093;-72
2023/02/16 08:37:18;;;;;;;;;50.00;41.00;24.10;32.30;;;;;;110406;1250;50166;-67
2023/02/16 08:39:45;;;;;;;;;48.00;39.00;24.10;32.40;;;;;;110560;1254;45398;-77
2023/02/16 08:42:12;;;;;;;;;51.00;41.00;24.10;32.70;;;;;;110497;1252;55558;-69
2023/02/16 08:44:41;;;;;;;;;51.00;40.00;24.00;32.40;;;;;;110742;1250;54212;-80
2023/02/16 08:47:09;;;;;;;;;50.00;40.00;24.00;32.30;;;;;;110531;1254;49389;-70
2023/02/16 08:49:38;;;;;;;;;51.00;37.00;24.00;32.30;;;;;;110578;1250;49174;-73
2023/02/16 08:52:05;;;;;;;;;51.00;41.00;24.00;32.50;;;;;;110414;1253;46457;-72
2023/02/16 08:54:32;;;;;;;;;43.00;36.50;24.00;32.40;;;;;;110669;1250;55598;-66
2023/02/16 08:57:01;;;;;;;;;45.33;37.33;24.00;32.40;;;;;;110628;1250;54344;-69
2023/02/16 08:59:29;;;;;;;;;48.00;40.00;24.00;32.40;;;;;;110557;1251;50527;-73
2023/02/16 09:01:57;;;;;;;;;50.00;41.00;24.00;32.30;;;;;;110553;1250;49849;-69
2023/02/16 09:04:27;;;;;;;;;46.00;36.50;23.90;32.60;;;;;;110779;1250;45866;-70
2023/02/16 09:06:57;;;;;;;;;47.67;38.67;23.90;32.70;;;;;;110538;1253;55829;-71
2023/02/16 09:09:25;;;;;;;;;49.00;38.50;24.00;33.20;;;;;;110609;1250;54694;-64
2023/02/16 09:11:53;;;;;;;;;45.00;37.00;24.10;33.00;;;;;;110478;1250;49717;-70
2023/02/16 09:14:21;;;;;;;;;46.00;36.00;24.10;33.00;;;;;;110644;1256;49478;-73
2023/02/16 09:16:49;;;;;;;;;49.25;42.00;24.20;33.10;;;;;;110536;1254;45861;-72
2023/02/16 09:19:18;;;;;;;;;40.00;34.00;24.30;32.80;;;;;;110452;1250;56153;-67
2023/02/16 09:21:46;;;;;;;;;48.00;40.00;24.30;32.70;;;;;;110452;1250;53213;-71
2023/02/16 09:24:14;;;;;;;;;46.00;37.00;24.40;32.90;;;;;;110604;1250;49637;-67
2023/02/16 09:26:41;;;;;;;;;47.00;36.00;24.50;33.00;;;;;;110390;1254;49472;-67
2023/02/16 09:29:12;;;;;;;;;50.50;40.00;24.60;33.00;;;;;;110393;1254;45627;-70
2023/02/16 09:31:40;;;;;;;;;45.33;36.33;24.60;33.00;;;;;;110600;1250;56634;-74
2023/02/16 09:34:19;;;;;;;;;48.50;37.50;24.70;33.30;;;;;;110432;1253;53434;-66
2023/02/16 09:36:46;;;;;;;;;44.00;37.00;24.80;33.70;;;;;;110452;1250;49893;-74
2023/02/16 09:39:15;;;;;;;;;42.00;34.33;24.90;33.10;;;;;;110517;1254;50271;-68
2023/02/16 09:41:54;;;;;;;;;51.00;41.00;25.00;32.90;;;;;;110338;1254;46281;-67
2023/02/16 09:44:28;;;;;;;;;48.00;37.00;25.10;32.70;;;;;;110652;1250;56624;-71
2023/02/16 09:46:57;;;;;;;;;48.00;37.00;25.20;32.60;;;;;;110428;1249;53807;-68
2023/02/16 09:49:41;;;;;;;;;51.00;37.00;25.30;33.00;;;;;;110506;1250;49471;-69
2023/02/16 09:52:23;;;;;;;;;41.67;34.00;25.40;32.90;;;;;;110433;1251;49562;-70
2023/02/16 09:54:53;;;;;;;;;49.00;38.00;25.50;33.00;;;;;;110448;1253;46188;-70
2023/02/16 09:57:44;;;;;;;;;45.00;38.00;25.60;33.00;;;;;;110618;1255;55727;-75
2023/02/16 10:00:40;;;;;;;;;37.50;33.00;25.70;32.90;;;;;;110620;1250;53847;-72
2023/02/16 10:03:36;;;;;;;;;43.50;35.50;25.80;32.80;;;;;;110406;1250;49194;-67
2023/02/16 10:06:12;;;;;;;;;43.67;35.33;25.90;33.40;;;;;;110341;1254;49103;-75
2023/02/16 10:08:42;;;;;;;;;49.33;40.33;26.10;32.80;;;;;;110214;1252;45310;-66
2023/02/16 10:11:37;;;;;;;;;40.00;33.67;26.20;32.40;;;;;;110438;1250;55654;-69
2023/02/16 10:14:31;;;;;;;;;46.00;36.00;26.20;32.20;;;;;;110572;1254;53783;-69
2023/02/16 10:17:07;;;;;;;;;41.67;34.00;26.30;32.30;;;;;;110510;1250;50159;-77
2023/02/16 10:19:43;;;;;;;;;46.00;38.00;26.40;32.10;;;;;;110500;1250;49721;-68
2023/02/16 10:22:25;;;;;;;;;46.75;34.00;26.50;32.50;;;;;;110525;1250;46066;-68
2023/02/16 10:25:11;;;;;;;;;41.50;34.00;26.50;32.20;;;;;;110541;1251;55774;-66
2023/02/16 10:27:41;;;;;;;;;42.50;34.50;26.50;32.10;;;;;;110452;1254;54193;-72
2023/02/16 10:30:16;;;;;;;;;35.00;32.00;26.60;32.10;;;;;;110518;1254;49031;-76
2023/02/16 10:32:58;;;;;;;;;42.33;33.33;26.60;32.00;;;;;;110347;1254;49252;-80
2023/02/16 10:35:36;;;;;;;;;41.00;35.50;26.60;31.90;;;;;;110820;1253;45548;-77
2023/02/16 10:38:03;;;;;;;;;40.00;33.00;26.60;31.90;;;;;;110409;1250;56549;-74
2023/02/16 10:40:47;;;;;;;;;41.50;35.00;26.70;31.80;;;;;;110386;1250;54315;-77
2023/02/16 10:43:45;;;;;;;;;41.00;35.00;26.60;31.70;;;;;;110597;1250;49373;-77
2023/02/16 10:46:36;;;;;;;;;45.00;36.67;26.60;31.70;;;;;;110529;1250;49804;-73
2023/02/16 10:49:03;;;;;;;;;43.00;33.50;26.60;31.80;;;;;;110422;1254;45870;-67
2023/02/16 10:51:35;;;;;;;;;44.00;35.00;26.60;31.70;;;;;;110508;1250;56062;-71
2023/02/16 10:54:22;;;;;;;;;50.00;39.75;26.60;31.70;;;;;;110344;1254;55341;-71
2023/02/16 10:56:52;;;;;;;;;46.00;39.00;26.50;31.80;;;;;;110375;1250;49843;-75
2023/02/16 10:59:43;;;;;;;;;44.00;36.00;26.50;31.70;;;;;;110368;1254;50109;-71
2023/02/16 11:02:21;;;;;;;;;44.00;34.00;26.50;32.40;;;;;;110211;1250;46568;-73
2023/02/16 11:04:53;;;;;;;;;44.00;37.00;26.50;31.70;;;;;;110582;1250;55755;-73
2023/02/16 11:07:25;;;;;;;;;45.00;36.00;26.50;32.00;;;;;;110518;1250;53940;-74
2023/02/16 11:09:55;;;;;;;;;39.00;31.00;26.40;31.70;;;;;;110380;1250;48885;-69
2023/02/16 11:12:32;;;;;;;;;43.00;35.00;26.40;31.80;;;;;;110512;1250;49597;-68
2023/02/16 11:15:12;;;;;;;;;46.00;36.00;26.40;31.90;;;;;;110617;1254;45726;-73
2023/02/16 11:18:06;;;;;;;;;51.00;39.00;26.30;31.40;;;;;;110196;1252;55869;-73
2023/02/16 11:20:45;;;;;;;;;42.67;35.00;26.30;31.60;;;;;;110478;1250;54188;-73
2023/02/16 11:23:27;;;;;;;;;46.67;34.67;26.20;31.80;;;;;;110404;1251;49188;-73
2023/02/16 11:26:07;;;;;;;;;46.33;37.00;26.20;31.80;;;;;;110306;1254;49718;-71
2023/02/16 11:28:46;;;;;;;;;49.00;39.00;26.20;32.00;;;;;;110233;1250;46060;-72
2023/02/16 11:31:26;;;;;;;;;43.00;36.00;26.10;32.40;;;;;;110052;1250;56021;-71
2023/02/16 11:33:54;;;;;;;;;43.00;35.00;26.10;31.80;;;;;;110029;1250;53964;-69
2023/02/16 11:36:27;;;;;;;;;41.50;35.50;26.00;31.70;;;;;;110274;1250;48827;-72
2023/02/16 11:38:57;;;;;;;;;49.00;39.50;25.90;31.60;;;;;;110254;1254;50065;-70
2023/02/16 11:41:25;;;;;;;;;46.50;36.50;25.90;31.50;;;;;;110346;1250;46496;-68
2023/02/16 11:43:53;;;;;;;;;45.00;36.00;25.80;31.50;;;;;;110142;1254;55042;-70
2023/02/16 11:46:22;;;;;;;;;43.00;33.00;25.80;31.70;;;;;;110232;1254;54497;-72
2023/02/16 11:48:50;;;;;;;;;43.00;34.00;25.70;31.60;;;;;;110226;1253;49996;-72
2023/02/16 11:51:33;;;;;;;;;43.67;36.00;25.70;31.70;;;;;;110151;1256;49565;-73
2023/02/16 11:54:04;;;;;;;;;47.00;36.00;25.60;31.90;;;;;;110451;1250;46265;-70
2023/02/16 11:56:33;;;;;;;;;43.00;37.00;25.60;31.90;;;;;;110344;1253;56125;-69
2023/02/16 11:59:15;;;;;;;;;44.67;35.00;25.50;31.60;;;;;;110299;1254;54047;-76
2023/02/16 12:01:52;;;;;;;;;43.50;35.50;25.50;31.50;;;;;;110290;1256;49662;-71
2023/02/16 12:04:42;;;;;;;;;43.00;34.00;25.40;31.60;;;;;;110747;1254;49352;-71
2023/02/16 12:07:25;;;;;;;;;43.00;33.50;25.30;32.20;;;;;;110558;1250;45472;-72
2023/02/16 12:10:25;;;;;;;;;45.50;37.00;25.30;31.60;;;;;;110673;1250;56874;-73
2023/02/16 12:13:30;;;;;;;;;46.00;35.00;25.30;31.40;;;;;;110343;1250;53518;-75
2023/02/16 12:16:21;;;;;;;;;48.00;35.00;25.30;31.40;;;;;;110356;1254;49193;-69
2023/02/16 12:19:03;;;;;;;;;40.50;35.50;25.20;31.60;;;;;;110434;1250;50214;-71
2023/02/16 12:21:50;;;;;;;;;46.00;36.00;25.20;31.30;;;;;;110391;1251;45666;-71
2023/02/16 12:24:52;;;;;;;;;39.00;33.25;25.10;31.40;;;;;;110500;1254;55913;-69
2023/02/16 12:27:19;;;;;;;;;43.00;33.00;25.00;31.50;;;;;;110164;1254;53527;-68
2023/02/16 12:30:03;;;;;;;;;47.00;38.00;25.00;32.10;;;;;;110417;1250;49585;-71
2023/02/16 12:32:48;;;;;;;;;43.67;34.67;24.90;31.70;;;;;;110376;1252;50003;-73
2023/02/16 12:35:52;;;;;;;;;45.00;35.00;24.90;31.90;;;;;;110556;1250;46025;-64
2023/02/16 12:38:51;;;;;;;;;44.33;35.00;25.10;32.20;;;;;;110273;1250;56205;-64
2023/02/16 12:41:43;;;;;;;;;40.00;34.00;25.20;31.70;;;;;;110223;1250;53687;-63
2023/02/16 12:44:23;;;;;;;;;40.33;33.33;25.50;31.80;;;;;;110593;1254;50072;-71
2023/02/16 12:47:02;;;;;;;;;39.50;33.00;25.60;31.40;;;;;;110376;1254;49093;-69
2023/02/16 12:50:03;;;;;;;;;44.00;33.67;25.80;31.40;;;;;;110376;1250;45756;-70
2023/02/16 12:52:34;;;;;;;;;39.00;34.00;25.90;31.40;;;;;;110528;1254;55304;-65
2023/02/16 12:55:24;;;;;;;;;38.50;33.50;26.10;31.40;;;;;;110362;1254;53349;-66
2023/02/16 12:58:15;;;;;;;;;41.00;33.00;26.20;31.70;;;;;;110060;1254;50543;-65
2023/02/16 13:00:47;;;;;;;;;39.50;33.00;26.40;31.70;;;;;;110172;1250;50841;-66
2023/02/16 13:03:31;;;;;;;;;40.00;29.50;26.50;31.90;;;;;;110139;1254;45322;-66
2023/02/16 13:06:14;;;;;;;;;41.67;36.00;26.50;31.50;;;;;;110297;1250;55889;-67
2023/02/16 13:08:52;;;;;;;;;35.00;31.00;26.60;31.60;;;;;;110038;1254;54775;-69
2023/02/16 13:11:33;;;;;;;;;44.50;34.00;26.70;31.70;;;;;;110100;1251;49093;-68
2023/02/16 13:14:03;;;;;;;;;31.00;28.00;26.80;31.80;;;;;;110093;1254;49696;-68
2023/02/16 13:16:41;;;;;;;;;40.67;33.00;26.90;32.00;;;;;;110061;1253;45343;-67
2023/02/16 13:19:13;;;;;;;;;43.50;32.00;27.10;31.80;;;;;;110004;1253;55971;-68
2023/02/16 13:21:48;;;;;;;;;;;27.30;31.70;;;;;;110028;1254;53587;-65
2023/02/16 13:24:48;;;;;;;;;36.00;32.00;27.30;31.50;;;;;;110133;1250;50057;-69